createdAt,value
2023-10-03T00:01:41.606Z,635.63
2023-10-03T00:04:13.377Z,638.17
2023-10-03T00:06:47.595Z,628.30
2023-10-03T00:09:19.419Z,614.93
2023-10-03T00:11:58.756Z,559.40
2023-10-03T00:14:30.512Z,616.30
2023-10-03T00:17:02.318Z,797.17
2023-10-03T00:19:34.045Z,713.30
2023-10-03T00:22:05.816Z,662.37
2023-10-03T00:24:37.481Z,645.40
2023-10-03T00:27:10.175Z,635.83
2023-10-03T00:29:42.097Z,566.90
2023-10-03T00:32:13.878Z,617.47
2023-10-03T00:34:46.466Z,609.00
2023-10-03T00:37:18.647Z,619.90
2023-10-03T00:39:50.323Z,616.23
2023-10-03T00:42:22.168Z,612.13
2023-10-03T00:44:53.991Z,609.77
2023-10-03T00:47:25.933Z,595.67
2023-10-03T00:49:58.301Z,758.63
2023-10-03T00:52:31.178Z,650.10
2023-10-03T00:55:03.427Z,609.03
2023-10-03T00:57:35.148Z,419.03
2023-10-03T01:00:17.002Z,557.60
2023-10-03T01:02:50.218Z,594.60
2023-10-03T01:05:22.284Z,596.13
2023-10-03T01:07:54.091Z,714.40
2023-10-03T01:10:25.887Z,450.27
2023-10-03T01:13:00.494Z,606.63
2023-10-03T01:15:32.670Z,528.50
2023-10-03T01:18:05.384Z,529.87
2023-10-03T01:20:42.048Z,572.50
2023-10-03T01:23:15.367Z,515.03
2023-10-03T01:25:47.281Z,506.33
2023-10-03T01:28:19.067Z,579.73
2023-10-03T01:30:52.364Z,567.40
2023-10-03T01:33:28.009Z,580.87
2023-10-03T01:36:03.739Z,565.73
2023-10-03T01:38:35.833Z,573.23
2023-10-03T01:41:08.707Z,649.92
2023-10-03T01:43:44.329Z,588.40
2023-10-03T01:46:18.443Z,575.20
2023-10-03T01:48:50.166Z,553.03
2023-10-03T01:51:22.201Z,555.47
2023-10-03T01:53:57.113Z,467.57
2023-10-03T01:56:32.050Z,545.60
2023-10-03T01:59:04.034Z,24.93
2023-10-03T02:01:38.739Z,25.50
2023-10-03T02:04:11.321Z,36.90
2023-10-03T02:06:43.094Z,52.83
2023-10-03T02:09:16.032Z,142.00
2023-10-03T02:11:48.473Z,475.77
2023-10-03T02:14:20.190Z,554.97
2023-10-03T02:16:52.577Z,516.47
2023-10-03T02:19:24.243Z,570.70
2023-10-03T02:22:00.568Z,595.77
2023-10-03T02:24:32.842Z,550.27
2023-10-03T02:27:07.604Z,542.57
2023-10-03T02:29:39.612Z,517.43
2023-10-03T02:32:13.057Z,484.47
2023-10-03T02:34:44.790Z,539.73
2023-10-03T02:37:16.555Z,498.70
2023-10-03T02:39:48.207Z,534.83
2023-10-03T02:42:19.964Z,537.90
2023-10-03T02:44:51.689Z,527.63
2023-10-03T02:47:23.463Z,502.80
2023-10-03T02:49:55.411Z,692.85
2023-10-03T02:52:27.153Z,323.83
2023-10-03T02:54:58.859Z,581.20
2023-10-03T02:57:30.831Z,558.57
2023-10-03T03:00:07.226Z,488.63
2023-10-03T03:02:42.509Z,523.83
2023-10-03T03:05:18.546Z,576.13
2023-10-03T03:07:59.088Z,536.80
2023-10-03T03:10:32.108Z,356.73
2023-10-03T03:13:04.073Z,469.63
2023-10-03T03:15:39.052Z,485.70
2023-10-03T03:18:10.919Z,530.90
2023-10-03T03:20:44.359Z,493.67
2023-10-03T03:23:16.377Z,610.35
2023-10-03T03:25:50.909Z,313.57
2023-10-03T03:28:24.913Z,445.77
2023-10-03T03:30:57.430Z,505.93
2023-10-03T03:33:29.386Z,124.63
2023-10-03T03:36:02.548Z,454.40
2023-10-03T03:38:34.331Z,499.50
2023-10-03T03:41:07.315Z,507.13
2023-10-03T03:43:39.499Z,445.23
2023-10-03T03:46:11.602Z,459.37
2023-10-03T03:48:43.411Z,384.67
2023-10-03T03:51:15.742Z,496.13
2023-10-03T03:53:48.554Z,534.00
2023-10-03T03:56:20.457Z,528.30
2023-10-03T03:58:52.141Z,440.95
2023-10-03T04:01:24.726Z,35.43
2023-10-03T04:03:59.618Z,76.63
2023-10-03T04:06:33.254Z,149.87
2023-10-03T04:09:09.989Z,545.80
2023-10-03T04:11:42.554Z,540.17
2023-10-03T04:14:15.161Z,502.47
2023-10-03T04:16:46.830Z,537.23
2023-10-03T04:19:19.346Z,546.23
2023-10-03T04:21:51.298Z,550.37
2023-10-03T04:24:23.609Z,556.70
2023-10-03T04:26:58.374Z,556.43
2023-10-03T04:29:30.183Z,535.13
2023-10-03T04:32:02.871Z,755.78
2023-10-03T04:34:34.589Z,347.80
2023-10-03T04:37:07.595Z,603.17
2023-10-03T04:39:39.401Z,538.43
2023-10-03T04:42:11.161Z,484.07
2023-10-03T04:44:42.950Z,574.97
2023-10-03T04:47:14.614Z,568.17
2023-10-03T04:49:46.253Z,579.13
2023-10-03T04:52:17.932Z,557.60
2023-10-03T04:54:49.668Z,581.93
2023-10-03T04:57:21.392Z,584.10
2023-10-03T04:59:53.223Z,588.20
2023-10-03T05:02:25.138Z,588.03
2023-10-03T05:04:57.066Z,579.33
2023-10-03T05:07:29.874Z,587.70
2023-10-03T05:10:01.644Z,597.77
2023-10-03T05:12:33.590Z,578.80
2023-10-03T05:15:08.254Z,600.63
2023-10-03T05:17:40.029Z,602.03
2023-10-03T05:20:14.427Z,545.57
2023-10-03T05:22:49.018Z,600.47
2023-10-03T05:25:20.747Z,589.33
2023-10-03T05:27:52.498Z,596.13
2023-10-03T05:30:26.322Z,553.20
2023-10-03T05:32:58.041Z,603.30
2023-10-03T05:35:30.623Z,547.23
2023-10-03T05:38:07.854Z,422.27
2023-10-03T05:40:40.873Z,896.80
2023-10-03T05:43:12.710Z,714.87
2023-10-03T05:45:46.274Z,524.57
2023-10-03T05:48:23.279Z,631.37
2023-10-03T05:50:56.512Z,642.47
2023-10-03T05:53:28.191Z,638.93
2023-10-03T05:55:59.912Z,797.03
2023-10-03T05:58:33.769Z,665.10
2023-10-03T06:01:05.560Z,649.40
2023-10-03T06:03:37.811Z,652.93
2023-10-03T06:06:11.082Z,651.33
2023-10-03T06:08:42.845Z,534.10
2023-10-03T06:11:15.094Z,538.37
2023-10-03T06:13:46.818Z,767.75
2023-10-03T06:16:18.622Z,686.90
2023-10-03T06:18:52.239Z,674.63
2023-10-03T06:21:24.861Z,663.17
2023-10-03T06:23:56.776Z,665.47
2023-10-03T06:26:28.485Z,661.27
2023-10-03T06:29:00.791Z,663.87
2023-10-03T06:31:32.697Z,651.60
2023-10-03T06:34:04.750Z,657.83
2023-10-03T06:36:36.483Z,666.37
2023-10-03T06:39:10.256Z,679.13
2023-10-03T06:41:42.070Z,667.57
2023-10-03T06:44:13.981Z,675.40
2023-10-03T06:46:45.709Z,637.10
2023-10-03T06:49:18.790Z,697.70
2023-10-03T06:51:51.629Z,697.67
2023-10-03T06:54:24.817Z,692.13
2023-10-03T06:56:56.854Z,697.07
2023-10-03T06:59:28.702Z,722.73
2023-10-03T07:02:00.387Z,730.67
2023-10-03T07:04:35.331Z,743.80
2023-10-03T07:07:08.362Z,741.70
2023-10-03T07:09:40.525Z,749.13
2023-10-03T07:12:12.289Z,755.20
2023-10-03T07:14:47.435Z,765.83
2023-10-03T07:17:19.245Z,764.07
2023-10-03T07:19:51.214Z,774.63
2023-10-03T07:22:22.912Z,764.33
2023-10-03T07:24:54.674Z,772.73
2023-10-03T07:27:26.434Z,786.07
2023-10-03T07:29:58.174Z,781.00
2023-10-03T07:32:33.795Z,796.63
2023-10-03T07:35:07.997Z,799.33
2023-10-03T07:37:42.630Z,868.33
2023-10-03T07:40:14.522Z,815.20
2023-10-03T07:42:46.210Z,821.80
2023-10-03T07:45:19.037Z,819.33
2023-10-03T07:47:51.697Z,806.93
2023-10-03T07:50:26.938Z,809.43
2023-10-03T07:52:59.012Z,817.47
2023-10-03T07:55:34.108Z,878.37
2023-10-03T07:58:06.407Z,838.10
2023-10-03T08:00:41.426Z,829.23
2023-10-03T08:03:14.054Z,843.13
2023-10-03T08:05:46.125Z,848.53
2023-10-03T08:08:17.825Z,855.03
2023-10-03T08:10:50.782Z,856.37
2023-10-03T08:13:24.722Z,856.13
2023-10-03T08:15:56.472Z,879.50
2023-10-03T08:18:28.324Z,873.17
2023-10-03T08:21:04.729Z,862.17
2023-10-03T08:23:38.908Z,889.53
2023-10-03T08:26:10.924Z,881.83
2023-10-03T08:28:42.562Z,897.77
2023-10-03T08:31:15.520Z,999.90
2023-10-03T08:33:47.456Z,908.20
2023-10-03T08:36:20.320Z,933.83
2023-10-03T08:38:52.085Z,910.43
2023-10-03T08:41:36.577Z,894.70
2023-10-03T08:44:13.455Z,931.90
2023-10-03T08:46:58.662Z,926.07
2023-10-03T08:49:39.399Z,935.97
2023-10-03T08:52:11.761Z,940.13
2023-10-03T08:54:44.141Z,937.83
2023-10-03T08:57:24.083Z,950.47
2023-10-03T08:59:55.953Z,866.50
2023-10-03T09:02:29.381Z,903.70
2023-10-03T09:05:16.533Z,834.10
2023-10-03T09:07:48.951Z,954.30
2023-10-03T09:10:24.936Z,963.83
2023-10-03T09:13:07.506Z,965.27
2023-10-03T09:15:43.542Z,969.43
2023-10-03T09:18:22.992Z,471.27
2023-10-03T09:21:00.490Z,700.43
2023-10-03T09:23:40.389Z,823.53
2023-10-03T09:26:12.096Z,897.87
2023-10-03T09:28:44.654Z,940.10
2023-10-03T09:31:16.497Z,994.60
2023-10-03T09:33:48.584Z,900.10
2023-10-03T09:36:20.636Z,978.27
2023-10-03T09:38:52.366Z,946.23
2023-10-03T09:41:25.574Z,929.83
2023-10-03T09:43:57.398Z,999.90
2023-10-03T09:46:39.972Z,999.90
2023-10-03T09:49:12.116Z,999.90
2023-10-03T09:51:52.779Z,992.23
2023-10-03T09:54:31.903Z,684.83
2023-10-03T09:57:16.528Z,999.90
2023-10-03T09:59:49.993Z,943.10
2023-10-03T10:02:37.126Z,952.47
2023-10-03T10:05:22.065Z,549.10
2023-10-03T10:08:29.338Z,519.58
2023-10-03T10:11:10.500Z,639.00
2023-10-03T10:14:03.412Z,220.07
2023-10-03T10:16:35.568Z,316.13
2023-10-03T10:19:07.482Z,278.33
2023-10-03T10:21:52.702Z,307.03
2023-10-03T10:24:26.574Z,269.23
2023-10-03T10:27:01.092Z,356.37
2023-10-03T10:29:36.863Z,139.32
2023-10-03T10:32:20.644Z,389.53
2023-10-03T10:34:53.202Z,220.77
2023-10-03T10:37:24.930Z,188.73
2023-10-03T10:40:12.888Z,391.50
2023-10-03T10:43:00.363Z,220.43
2023-10-03T10:45:43.353Z,434.80
2023-10-03T10:48:17.203Z,341.60
2023-10-03T10:51:04.884Z,428.13
2023-10-03T10:53:44.611Z,266.60
2023-10-03T10:56:16.475Z,468.05
2023-10-03T10:58:53.518Z,508.48
2023-10-03T11:01:25.271Z,366.63
2023-10-03T11:03:57.780Z,511.73
2023-10-03T11:06:29.935Z,416.35
2023-10-03T11:09:02.036Z,329.27
2023-10-03T11:11:40.094Z,507.25
2023-10-03T11:14:11.908Z,346.90
2023-10-03T11:16:46.053Z,524.53
2023-10-03T11:19:17.889Z,600.83
2023-10-03T11:21:49.965Z,300.30
2023-10-03T11:24:23.829Z,408.58
2023-10-03T11:26:58.514Z,675.85
2023-10-03T11:29:48.105Z,441.58
2023-10-03T11:32:26.027Z,827.93
2023-10-03T11:34:59.624Z,609.70
2023-10-03T11:37:35.116Z,376.23
2023-10-03T11:40:17.585Z,715.10
2023-10-03T11:42:51.470Z,840.57
2023-10-03T11:45:30.414Z,799.67
2023-10-03T11:48:19.283Z,619.63
2023-10-03T11:50:51.425Z,993.77
2023-10-03T11:53:23.219Z,686.70
2023-10-03T11:55:54.960Z,908.75
2023-10-03T11:58:28.198Z,862.40
2023-10-03T12:00:59.964Z,665.90
2023-10-03T12:03:32.002Z,758.23
2023-10-03T12:06:05.324Z,703.20
2023-10-03T12:08:42.260Z,879.37
2023-10-03T12:11:15.988Z,952.00
2023-10-03T12:13:47.808Z,999.90
2023-10-03T12:16:21.021Z,737.60
2023-10-03T12:18:53.018Z,802.03
2023-10-03T12:21:24.983Z,999.90
2023-10-03T12:23:56.712Z,974.37
2023-10-03T12:26:28.602Z,992.83
2023-10-03T12:29:05.525Z,999.90
2023-10-03T12:31:37.331Z,700.07
2023-10-03T12:34:09.036Z,999.90
2023-10-03T12:36:40.752Z,999.90
2023-10-03T12:39:12.971Z,999.90
2023-10-03T12:41:47.925Z,999.90
2023-10-03T12:44:19.673Z,999.90
2023-10-03T12:46:51.293Z,725.77
2023-10-03T12:49:23.849Z,969.00
2023-10-03T12:51:56.073Z,485.43
2023-10-03T12:54:28.172Z,976.73
2023-10-03T12:57:01.081Z,920.67
2023-10-03T12:59:33.397Z,993.77
2023-10-03T13:02:07.151Z,976.97
2023-10-03T13:04:38.931Z,348.90
2023-10-03T13:07:10.849Z,479.13
2023-10-03T13:09:45.113Z,962.40
2023-10-03T13:12:16.857Z,822.47
2023-10-03T13:14:48.669Z,986.43
2023-10-03T13:17:21.782Z,982.13
2023-10-03T13:19:54.419Z,971.07
2023-10-03T13:22:28.007Z,975.80
2023-10-03T13:24:59.628Z,972.47
2023-10-03T13:27:31.448Z,818.33
2023-10-03T13:30:11.560Z,968.40
2023-10-03T13:32:43.471Z,956.07
2023-10-03T13:35:15.213Z,954.43
2023-10-03T13:37:47.540Z,936.50
2023-10-03T13:40:19.600Z,951.37
2023-10-03T13:42:52.070Z,922.10
2023-10-03T13:45:24.528Z,952.97
2023-10-03T13:47:57.788Z,953.07
2023-10-03T13:50:31.703Z,929.47
2023-10-03T13:53:07.885Z,957.13
2023-10-03T13:55:40.154Z,908.13
2023-10-03T13:58:12.775Z,959.57
2023-10-03T14:00:45.446Z,953.03
2023-10-03T14:03:19.733Z,956.00
2023-10-03T14:05:51.728Z,953.50
2023-10-03T14:08:23.376Z,946.63
2023-10-03T14:10:55.108Z,953.03
2023-10-03T14:13:26.857Z,999.90
2023-10-03T14:15:58.759Z,965.40
2023-10-03T14:18:30.738Z,961.63
2023-10-03T14:21:11.216Z,944.97
2023-10-03T14:23:43.310Z,944.87
2023-10-03T14:26:15.147Z,942.80
2023-10-03T14:28:46.834Z,845.37
2023-10-03T14:31:18.580Z,937.73
2023-10-03T14:33:50.317Z,934.73
2023-10-03T14:36:22.077Z,924.27
2023-10-03T14:38:54.454Z,929.07
2023-10-03T14:41:26.358Z,926.47
2023-10-03T14:43:57.973Z,907.80
2023-10-03T14:46:29.722Z,998.78
2023-10-03T14:49:01.704Z,942.63
2023-10-03T14:51:33.559Z,932.07
2023-10-03T14:54:05.565Z,917.03
2023-10-03T14:56:37.336Z,906.60
2023-10-03T14:59:09.583Z,911.03
2023-10-03T15:01:41.525Z,930.47
2023-10-03T15:04:15.390Z,929.15
2023-10-03T15:06:48.471Z,971.90
2023-10-03T15:09:21.298Z,941.80
2023-10-03T15:11:53.212Z,935.20
2023-10-03T15:14:27.408Z,937.03
2023-10-03T15:17:00.695Z,936.10
2023-10-03T15:19:35.202Z,923.97
2023-10-03T15:22:12.485Z,906.03
2023-10-03T15:24:44.624Z,999.90
2023-10-03T15:27:20.562Z,953.73
2023-10-03T15:29:52.292Z,929.67
2023-10-03T15:32:24.031Z,924.93
2023-10-03T15:34:55.752Z,896.67
2023-10-03T15:37:27.581Z,891.17
2023-10-03T15:40:00.193Z,875.83
2023-10-03T15:42:32.539Z,859.57
2023-10-03T15:45:12.256Z,849.30
2023-10-03T15:47:45.078Z,821.87
2023-10-03T15:50:17.026Z,832.07
2023-10-03T15:52:48.844Z,833.87
2023-10-03T15:55:20.592Z,794.47
2023-10-03T15:57:52.491Z,783.50
2023-10-03T16:00:24.318Z,846.87
2023-10-03T16:02:56.864Z,793.77
2023-10-03T16:05:29.175Z,778.73
2023-10-03T16:08:00.986Z,749.93
2023-10-03T16:10:36.111Z,714.10
2023-10-03T16:13:07.930Z,820.63
2023-10-03T16:15:40.694Z,705.53
2023-10-03T16:18:12.565Z,662.03
2023-10-03T16:20:46.460Z,654.57
2023-10-03T16:23:18.345Z,632.93
2023-10-03T16:25:50.190Z,628.13
2023-10-03T16:28:21.871Z,610.97
2023-10-03T16:30:53.745Z,704.08
2023-10-03T16:33:25.799Z,641.10
2023-10-03T16:35:57.694Z,609.73
2023-10-03T16:38:29.445Z,601.63
2023-10-03T16:41:01.208Z,604.27
2023-10-03T16:43:32.914Z,583.93
2023-10-03T16:46:10.144Z,582.73
2023-10-03T16:48:45.229Z,892.05
2023-10-03T16:51:18.701Z,664.23
2023-10-03T16:53:51.587Z,628.57
2023-10-03T16:56:23.389Z,601.93
2023-10-03T16:58:55.070Z,595.47
2023-10-03T17:01:26.804Z,568.47
2023-10-03T17:03:59.318Z,574.23
2023-10-03T17:06:31.285Z,567.07
2023-10-03T17:09:04.260Z,557.83
2023-10-03T17:11:36.323Z,569.90
2023-10-03T17:14:08.783Z,550.20
2023-10-03T17:16:41.652Z,525.67
2023-10-03T17:19:13.409Z,538.87
2023-10-03T17:21:45.136Z,761.03
2023-10-03T17:24:16.974Z,625.27
2023-10-03T17:26:48.823Z,586.80
2023-10-03T17:29:20.576Z,574.40
2023-10-03T17:31:52.347Z,543.77
2023-10-03T17:34:24.202Z,554.67
2023-10-03T17:36:56.104Z,552.73
2023-10-03T17:39:28.068Z,803.80
2023-10-03T17:42:01.059Z,637.83
2023-10-03T17:44:34.707Z,593.53
2023-10-03T17:47:06.424Z,566.60
2023-10-03T17:49:38.265Z,550.33
2023-10-03T17:52:10.006Z,553.80
2023-10-03T17:54:42.220Z,557.83
2023-10-03T17:57:13.929Z,558.60
2023-10-03T17:59:56.776Z,554.40
2023-10-03T18:02:36.019Z,542.10
2023-10-03T18:05:11.069Z,541.03
2023-10-03T18:07:43.335Z,545.60
2023-10-03T18:10:17.131Z,548.00
2023-10-03T18:12:49.882Z,541.20
2023-10-03T18:15:21.673Z,540.10
2023-10-03T18:17:53.726Z,541.83
2023-10-03T18:20:25.630Z,547.77
2023-10-03T18:22:57.339Z,530.73
2023-10-03T18:25:29.075Z,541.23
2023-10-03T18:28:00.823Z,619.33
2023-10-03T18:30:32.607Z,568.10
2023-10-03T18:33:06.174Z,544.20
2023-10-03T18:35:38.062Z,530.57
2023-10-03T18:38:09.730Z,515.50
2023-10-03T18:40:45.057Z,508.27
2023-10-03T18:43:17.146Z,523.20
2023-10-03T18:45:58.002Z,516.93
2023-10-03T18:48:31.254Z,500.87
2023-10-03T18:51:04.656Z,514.87
2023-10-03T18:53:37.946Z,513.67
2023-10-03T18:56:11.158Z,516.97
2023-10-03T18:58:42.879Z,515.87
2023-10-03T19:01:18.374Z,570.03
2023-10-03T19:03:50.580Z,506.40
2023-10-03T19:06:22.370Z,515.83
2023-10-03T19:08:54.103Z,510.13
2023-10-03T19:11:25.939Z,498.27
2023-10-03T19:13:57.743Z,498.23
2023-10-03T19:16:29.489Z,480.77
2023-10-03T19:19:01.202Z,637.17
2023-10-03T19:21:34.066Z,544.63
2023-10-03T19:24:05.947Z,513.50
2023-10-03T19:26:39.263Z,499.77
2023-10-03T19:29:11.201Z,494.07
2023-10-03T19:31:43.392Z,494.90
2023-10-03T19:34:16.307Z,480.87
2023-10-03T19:36:48.082Z,460.97
2023-10-03T19:39:19.786Z,472.40
2023-10-03T19:41:51.617Z,468.80
2023-10-03T19:44:23.273Z,472.97
2023-10-03T19:46:59.025Z,457.47
2023-10-03T19:49:34.699Z,449.53
2023-10-03T19:52:06.420Z,461.33
2023-10-03T19:54:38.136Z,455.93
2023-10-03T19:57:09.817Z,460.37
2023-10-03T19:59:41.553Z,454.30
2023-10-03T20:02:14.886Z,460.47
2023-10-03T20:04:46.578Z,453.80
2023-10-03T20:07:18.489Z,460.00
2023-10-03T20:09:52.179Z,454.67
2023-10-03T20:12:24.082Z,456.23
2023-10-03T20:14:55.917Z,460.27
2023-10-03T20:17:27.786Z,454.13
2023-10-03T20:19:59.588Z,454.17
2023-10-03T20:22:31.255Z,468.97
2023-10-03T20:25:04.774Z,530.90
2023-10-03T20:27:36.621Z,493.17
2023-10-03T20:30:12.332Z,472.63
2023-10-03T20:32:44.558Z,459.87
2023-10-03T20:35:17.238Z,467.70
2023-10-03T20:37:49.013Z,465.37
2023-10-03T20:40:21.371Z,453.57
2023-10-03T20:42:53.263Z,453.17
2023-10-03T20:45:25.693Z,459.90
2023-10-03T20:47:57.559Z,463.27
2023-10-03T20:50:29.363Z,457.83
2023-10-03T20:53:01.372Z,454.47
2023-10-03T20:55:33.268Z,451.10
2023-10-03T20:58:04.971Z,536.22
2023-10-03T21:00:36.650Z,481.77
2023-10-03T21:03:09.868Z,458.57
2023-10-03T21:05:41.742Z,428.23
2023-10-03T21:08:13.372Z,444.20
2023-10-03T21:10:46.432Z,441.80
2023-10-03T21:13:18.076Z,440.40
2023-10-03T21:15:50.274Z,433.10
2023-10-03T21:18:22.075Z,423.83
2023-10-03T21:20:53.925Z,408.57
2023-10-03T21:23:26.046Z,416.70
2023-10-03T21:25:57.749Z,414.87
2023-10-03T21:28:30.895Z,408.07
2023-10-03T21:31:03.807Z,435.98
2023-10-03T21:33:35.985Z,422.30
2023-10-03T21:36:07.985Z,390.37
2023-10-03T21:38:40.042Z,390.13
2023-10-03T21:41:11.758Z,388.57
2023-10-03T21:43:43.933Z,370.07
2023-10-03T21:46:17.372Z,380.97
2023-10-03T21:48:51.402Z,392.30
2023-10-03T21:51:24.216Z,396.00
2023-10-03T21:53:55.968Z,396.70
2023-10-03T21:56:28.659Z,395.27
2023-10-03T21:59:01.553Z,387.97
2023-10-03T22:01:33.359Z,363.50
2023-10-03T22:04:05.459Z,387.83
2023-10-03T22:06:37.306Z,387.70
2023-10-03T22:09:11.134Z,377.53
2023-10-03T22:11:43.343Z,386.90
2023-10-03T22:14:16.891Z,381.23
2023-10-03T22:16:48.614Z,382.90
2023-10-03T22:19:21.657Z,381.80
2023-10-03T22:21:53.574Z,382.00
2023-10-03T22:24:25.458Z,378.90
2023-10-03T22:26:57.235Z,370.40
2023-10-03T22:29:28.910Z,365.40
2023-10-03T22:32:00.654Z,360.50
2023-10-03T22:34:32.311Z,356.77
2023-10-03T22:37:03.976Z,429.97
2023-10-03T22:39:35.706Z,402.30
2023-10-03T22:42:07.373Z,374.83
2023-10-03T22:44:40.310Z,377.60
2023-10-03T22:47:12.103Z,351.47
2023-10-03T22:49:43.863Z,352.73
2023-10-03T22:52:15.970Z,353.97
2023-10-03T22:54:47.681Z,644.47
2023-10-03T22:57:19.495Z,453.33
2023-10-03T22:59:51.337Z,392.40
2023-10-03T23:02:23.068Z,377.87
2023-10-03T23:04:54.779Z,360.47
2023-10-03T23:07:26.935Z,355.40
2023-10-03T23:09:58.638Z,429.97
2023-10-03T23:12:30.363Z,376.93
2023-10-03T23:15:02.659Z,361.63
2023-10-03T23:17:34.418Z,359.73
2023-10-03T23:20:08.682Z,352.70
2023-10-03T23:22:40.813Z,349.27
2023-10-03T23:25:14.981Z,352.00
2023-10-03T23:27:48.792Z,354.63
2023-10-03T23:30:20.794Z,355.90
2023-10-03T23:32:54.294Z,348.73
2023-10-03T23:35:26.102Z,357.10
2023-10-03T23:37:57.814Z,348.23
2023-10-03T23:40:29.504Z,347.50
2023-10-03T23:43:01.209Z,419.10
2023-10-03T23:45:36.890Z,384.57
2023-10-03T23:48:08.779Z,360.13
2023-10-03T23:50:40.437Z,355.03
2023-10-03T23:53:12.505Z,356.17
2023-10-03T23:55:48.271Z,354.50
2023-10-03T23:58:20.095Z,341.60
